Time;durP1;ratioP1;P1;durP2;ratioP2;P2;SDS_P1;SDS_P2;PMS_P1;PMS_P2;Temp;Humidity;BMP_temperature;BMP_pressure;BME280_temperature;BME280_humidity;BME280_pressure;Samples;Min_cycle;Max_cycle;Signal;HPM_P1;HPM_P2
2022/02/07 00:00:21;;;;;;;3.60;1.27;;;;;;;;;;5008462;28;20018;-66
2022/02/07 00:05:16;;;;;;;4.83;1.07;;;;;;;;;;5014137;28;20214;-66
2022/02/07 00:07:41;;;;;;;3.50;0.97;;;;;;;;;;5007856;28;20053;-66
2022/02/07 00:10:07;;;;;;;4.50;1.20;;;;;;;;;;5003292;28;20433;-66
2022/02/07 00:12:32;;;;;;;3.00;1.07;;;;;;;;;;5013868;28;20110;-66
2022/02/07 00:14:57;;;;;;;5.50;1.00;;;;;;;;;;5005218;28;20025;-66
2022/02/07 00:17:23;;;;;;;5.93;1.20;;;;;;;;;;5005516;28;20034;-66
2022/02/07 00:19:48;;;;;;;6.60;1.00;;;;;;;;;;5004170;28;20029;-66
2022/02/07 00:22:13;;;;;;;2.13;1.20;;;;;;;;;;5003506;28;20029;-66
2022/02/07 00:24:39;;;;;;;3.37;1.27;;;;;;;;;;5007006;28;20036;-66
2022/02/07 00:27:04;;;;;;;5.37;1.00;;;;;;;;;;5003092;28;20128;-66
2022/02/07 00:29:29;;;;;;;1.70;0.80;;;;;;;;;;5003003;28;20152;-66
2022/02/07 00:31:54;;;;;;;4.03;1.10;;;;;;;;;;5010943;28;20425;-67
2022/02/07 00:34:20;;;;;;;2.40;1.00;;;;;;;;;;5001399;28;20028;-66
2022/02/07 00:36:46;;;;;;;5.50;0.90;;;;;;;;;;5018983;28;20029;-67
2022/02/07 00:39:19;;;;;;;2.07;0.80;;;;;;;;;;5008491;28;20282;-66
2022/02/07 00:42:00;;;;;;;5.77;1.10;;;;;;;;;;5003184;28;20309;-66
2022/02/07 00:44:26;;;;;;;1.40;0.70;;;;;;;;;;5002189;28;20029;-66
2022/02/07 00:46:57;;;;;;;6.13;2.07;;;;;;;;;;5016345;28;20160;-66
2022/02/07 00:49:23;;;;;;;3.22;1.10;;;;;;;;;;5006915;28;20087;-66
2022/02/07 00:51:48;;;;;;;4.40;0.90;;;;;;;;;;5013277;28;20486;-66
2022/02/07 00:54:13;;;;;;;1.60;0.70;;;;;;;;;;5001758;28;20052;-67
2022/02/07 00:56:39;;;;;;;1.33;0.60;;;;;;;;;;5009998;28;20349;-66
2022/02/07 00:59:04;;;;;;;6.93;1.93;;;;;;;;;;5014574;28;20255;-66
2022/02/07 01:01:30;;;;;;;3.90;0.70;;;;;;;;;;5015232;28;20036;-66
2022/02/07 01:03:55;;;;;;;4.13;0.87;;;;;;;;;;5007010;28;20026;-66
2022/02/07 01:06:20;;;;;;;1.83;1.30;;;;;;;;;;5013028;28;20077;-66
2022/02/07 01:08:50;;;;;;;3.40;1.57;;;;;;;;;;5016866;28;20135;-66
2022/02/07 01:19:20;;;;;;;2.07;1.20;;;;;;;;;;4996673;28;20034;-66
2022/02/07 01:56:32;;;;;;;4.27;1.20;;;;;;;;;;5016361;28;20037;-66
2022/02/07 01:58:58;;;;;;;9.00;1.53;;;;;;;;;;5006213;28;20116;-66
2022/02/07 02:01:23;;;;;;;3.43;1.10;;;;;;;;;;5017809;28;20033;-66
2022/02/07 02:03:48;;;;;;;9.87;2.47;;;;;;;;;;5016985;28;20025;-66
2022/02/07 02:06:14;;;;;;;6.90;1.67;;;;;;;;;;5017017;28;20534;-66
2022/02/07 02:08:40;;;;;;;7.17;2.13;;;;;;;;;;5017417;28;20163;-66
2022/02/07 02:11:05;;;;;;;4.27;1.43;;;;;;;;;;5015106;28;20037;-66
2022/02/07 02:13:49;;;;;;;4.67;1.43;;;;;;;;;;5017551;28;20029;-66
2022/02/07 02:16:23;;;;;;;2.87;1.03;;;;;;;;;;5016518;28;20030;-66
2022/02/07 02:33:22;;;;;;;6.00;1.00;;;;;;;;;;4964970;28;20058;-66
2022/02/07 02:38:17;;;;;;;4.70;1.08;;;;;;;;;;4976274;28;20030;-67
2022/02/07 02:46:16;;;;;;;6.70;1.10;;;;;;;;;;4961992;28;20215;-66
2022/02/07 02:48:42;;;;;;;;;;;;;;;;;;4969427;28;20031;-66
2022/02/07 02:51:09;;;;;;;3.17;1.30;;;;;;;;;;4960894;28;20327;-66
2022/02/07 02:53:34;;;;;;;6.60;1.50;;;;;;;;;;4951732;28;20243;-66
2022/02/07 02:56:00;;;;;;;13.23;1.70;;;;;;;;;;4959946;28;20319;-66
2022/02/07 02:58:25;;;;;;;6.03;1.50;;;;;;;;;;4963920;28;20049;-66
2022/02/07 03:00:51;;;;;;;5.83;1.17;;;;;;;;;;4973929;28;20037;-66
2022/02/07 03:03:17;;;;;;;5.40;1.23;;;;;;;;;;4997154;28;20506;-66
2022/02/07 03:05:45;;;;;;;9.73;1.83;;;;;;;;;;4997466;28;20030;-66
2022/02/07 03:08:14;;;;;;;6.93;1.40;;;;;;;;;;4997203;28;20322;-66
2022/02/07 03:11:00;;;;;;;4.50;1.00;;;;;;;;;;4997676;28;20336;-66
2022/02/07 03:18:35;;;;;;;7.03;1.50;;;;;;;;;;5012805;28;20028;-66
2022/02/07 03:21:01;;;;;;;6.57;1.20;;;;;;;;;;5018954;28;20405;-66
2022/02/07 03:23:26;;;;;;;10.33;1.93;;;;;;;;;;5015785;28;20575;-66
2022/02/07 03:25:52;;;;;;;10.03;2.20;;;;;;;;;;5011265;28;20092;-67
2022/02/07 03:28:18;;;;;;;5.70;1.23;;;;;;;;;;5012913;28;20013;-69
2022/02/07 03:30:43;;;;;;;6.73;1.43;;;;;;;;;;5011610;28;20116;-69
2022/02/07 03:33:08;;;;;;;15.57;2.00;;;;;;;;;;5013421;28;20029;-69
2022/02/07 03:35:34;;;;;;;8.23;1.53;;;;;;;;;;5017094;28;20567;-69
2022/02/07 03:37:59;;;;;;;10.93;1.87;;;;;;;;;;5020260;28;20021;-69
2022/02/07 03:40:25;;;;;;;10.67;1.87;;;;;;;;;;5008225;28;20021;-69
2022/02/07 03:42:50;;;;;;;11.23;1.93;;;;;;;;;;5017480;28;20501;-69
2022/02/07 03:45:16;;;;;;;11.43;2.10;;;;;;;;;;5017251;28;20017;-69
2022/02/07 03:47:41;;;;;;;13.60;2.87;;;;;;;;;;5018022;28;20330;-69
2022/02/07 03:50:07;;;;;;;8.17;1.50;;;;;;;;;;5013793;28;20520;-69
2022/02/07 03:52:32;;;;;;;7.47;1.40;;;;;;;;;;5010886;28;20087;-69
2022/02/07 03:54:58;;;;;;;2.47;1.03;;;;;;;;;;5009080;28;20056;-69
2022/02/07 03:57:23;;;;;;;10.23;2.63;;;;;;;;;;5001814;28;20021;-69
2022/02/07 03:59:48;;;;;;;10.57;1.77;;;;;;;;;;5006774;28;20474;-69
2022/02/07 04:02:13;;;;;;;7.60;1.60;;;;;;;;;;5010980;28;20443;-69
2022/02/07 04:04:40;;;;;;;9.53;1.30;;;;;;;;;;5007585;28;20036;-69
2022/02/07 04:07:07;;;;;;;6.60;1.63;;;;;;;;;;5016288;28;20029;-69
2022/02/07 04:09:38;;;;;;;9.00;1.40;;;;;;;;;;5006022;28;20059;-69
2022/02/07 04:12:12;;;;;;;12.32;2.05;;;;;;;;;;5010514;28;20025;-69
2022/02/07 04:14:37;;;;;;;12.17;2.43;;;;;;;;;;5005610;28;20044;-69
2022/02/07 04:17:03;;;;;;;7.37;1.13;;;;;;;;;;5007237;28;20249;-69
2022/02/07 04:19:34;;;;;;;10.90;1.53;;;;;;;;;;5006809;28;20512;-69
2022/02/07 04:22:01;;;;;;;6.13;1.90;;;;;;;;;;5007746;28;20029;-69
2022/02/07 04:24:27;;;;;;;9.83;1.40;;;;;;;;;;5017657;28;20022;-69
2022/02/07 04:26:52;;;;;;;6.03;1.87;;;;;;;;;;5012201;28;20025;-69
2022/02/07 04:29:17;;;;;;;9.50;2.10;;;;;;;;;;5005250;28;20029;-69
2022/02/07 04:31:43;;;;;;;13.80;1.33;;;;;;;;;;5012467;28;20050;-69
2022/02/07 04:34:08;;;;;;;11.93;2.10;;;;;;;;;;5014482;28;20037;-69
2022/02/07 04:36:33;;;;;;;15.47;2.40;;;;;;;;;;5017401;28;20107;-69
2022/02/07 04:38:58;;;;;;;10.67;2.33;;;;;;;;;;5011598;28;20418;-69
2022/02/07 04:41:24;;;;;;;5.90;1.73;;;;;;;;;;5017098;28;20042;-69
2022/02/07 04:43:55;;;;;;;5.80;1.33;;;;;;;;;;5016194;28;20031;-69
2022/02/07 04:59:23;;;;;;;8.40;1.00;;;;;;;;;;5013792;28;20036;-69
2022/02/07 05:01:54;;;;;;;15.27;1.70;;;;;;;;;;5013939;28;20287;-69
2022/02/07 05:04:26;;;;;;;11.45;1.48;;;;;;;;;;5009505;28;20448;-69
2022/02/07 05:15:03;;;;;;;11.33;2.13;;;;;;;;;;5010736;28;20040;-69
2022/02/07 05:17:31;;;;;;;9.77;1.57;;;;;;;;;;5010785;28;20033;-69
2022/02/07 05:19:56;;;;;;;8.23;1.93;;;;;;;;;;5009736;28;20061;-69
2022/02/07 05:22:21;;;;;;;5.17;1.43;;;;;;;;;;5008523;28;20286;-69
2022/02/07 05:24:46;;;;;;;8.67;2.20;;;;;;;;;;5010083;28;20568;-69
2022/02/07 05:27:12;;;;;;;11.33;1.83;;;;;;;;;;5011703;28;20088;-69
2022/02/07 05:29:37;;;;;;;12.10;1.57;;;;;;;;;;5008025;28;20480;-69
2022/02/07 05:32:02;;;;;;;13.13;1.83;;;;;;;;;;5002810;28;20060;-69
2022/02/07 05:34:28;;;;;;;8.17;2.00;;;;;;;;;;5000448;28;20331;-69
2022/02/07 05:36:56;;;;;;;7.47;1.10;;;;;;;;;;5018393;28;20017;-69
2022/02/07 05:39:21;;;;;;;7.93;1.70;;;;;;;;;;5016062;28;20025;-69
2022/02/07 05:41:46;;;;;;;22.17;3.27;;;;;;;;;;5018513;28;20489;-69
2022/02/07 05:44:13;;;;;;;12.03;2.10;;;;;;;;;;5005456;28;20038;-69
2022/02/07 05:46:38;;;;;;;6.77;1.70;;;;;;;;;;5017336;28;20057;-69
2022/02/07 05:49:04;;;;;;;10.83;2.53;;;;;;;;;;5017971;28;20540;-69
2022/02/07 05:51:29;;;;;;;10.13;1.70;;;;;;;;;;5017961;28;20638;-69
2022/02/07 05:53:54;;;;;;;13.73;2.63;;;;;;;;;;5012002;28;20041;-69
2022/02/07 05:56:20;;;;;;;19.37;2.77;;;;;;;;;;5014792;28;20178;-69
2022/02/07 05:58:45;;;;;;;9.10;1.60;;;;;;;;;;4999119;28;20026;-69
2022/02/07 06:01:10;;;;;;;10.60;1.70;;;;;;;;;;5002732;28;20525;-69
2022/02/07 06:03:36;;;;;;;10.23;1.53;;;;;;;;;;5015938;28;20326;-70
2022/02/07 06:06:03;;;;;;;13.20;2.70;;;;;;;;;;5001759;28;20470;-69
2022/02/07 06:08:29;;;;;;;8.40;1.37;;;;;;;;;;5014873;28;20037;-69
2022/02/07 06:10:55;;;;;;;11.43;2.63;;;;;;;;;;5007192;28;20120;-69
2022/02/07 06:13:20;;;;;;;13.17;1.83;;;;;;;;;;5014966;28;20113;-69
2022/02/07 06:15:45;;;;;;;12.17;2.43;;;;;;;;;;5009843;28;20399;-69
2022/02/07 06:18:14;;;;;;;10.90;3.13;;;;;;;;;;5004527;28;20040;-69
2022/02/07 06:20:40;;;;;;;7.93;1.50;;;;;;;;;;5007556;28;20029;-70
2022/02/07 06:23:05;;;;;;;11.97;2.90;;;;;;;;;;5012059;28;20096;-69
2022/02/07 06:25:30;;;;;;;12.80;2.00;;;;;;;;;;5005317;28;20117;-69
2022/02/07 06:27:55;;;;;;;11.37;2.57;;;;;;;;;;5005444;28;20036;-69
2022/02/07 06:30:21;;;;;;;11.93;2.00;;;;;;;;;;5020186;28;20038;-69
2022/02/07 06:32:46;;;;;;;9.73;2.43;;;;;;;;;;5004333;28;20050;-69
2022/02/07 06:35:11;;;;;;;15.07;2.27;;;;;;;;;;5010843;28;20033;-70
2022/02/07 06:37:37;;;;;;;9.20;1.40;;;;;;;;;;5015758;28;20025;-69
2022/02/07 06:40:03;;;;;;;9.70;1.70;;;;;;;;;;5019093;28;20193;-69
2022/02/07 06:42:29;;;;;;;18.53;9.43;;;;;;;;;;5019151;28;20041;-69
2022/02/07 06:44:54;;;;;;;20.03;1.90;;;;;;;;;;5023929;28;20037;-69
2022/02/07 06:47:19;;;;;;;8.33;1.67;;;;;;;;;;5015290;28;20025;-69
2022/02/07 06:49:44;;;;;;;12.17;2.80;;;;;;;;;;5008306;28;20090;-70
2022/02/07 06:52:10;;;;;;;18.13;2.47;;;;;;;;;;5014572;28;20029;-69
2022/02/07 06:54:35;;;;;;;10.37;2.47;;;;;;;;;;5020585;28;20029;-69
2022/02/07 06:57:01;;;;;;;7.17;1.73;;;;;;;;;;5015373;28;20132;-69
2022/02/07 06:59:29;;;;;;;8.07;1.77;;;;;;;;;;5002546;28;20576;-69
2022/02/07 07:01:54;;;;;;;14.47;1.90;;;;;;;;;;5007785;28;20640;-70
2022/02/07 07:04:19;;;;;;;8.53;2.43;;;;;;;;;;5015273;28;20072;-70
2022/02/07 07:06:45;;;;;;;8.43;1.63;;;;;;;;;;5013392;28;20048;-70
2022/02/07 07:09:12;;;;;;;14.30;2.37;;;;;;;;;;5015618;28;20042;-70
2022/02/07 07:11:38;;;;;;;7.33;1.87;;;;;;;;;;5005017;28;20042;-70
2022/02/07 07:16:51;;;;;;;10.60;1.70;;;;;;;;;;5009107;28;20249;-70
2022/02/07 07:19:18;;;;;;;15.00;1.80;;;;;;;;;;5018833;28;20044;-70
2022/02/07 07:21:43;;;;;;;4.67;1.40;;;;;;;;;;5016219;28;20474;-70
2022/02/07 07:24:08;;;;;;;12.30;1.80;;;;;;;;;;5021957;28;20035;-70
2022/02/07 07:26:34;;;;;;;19.40;4.57;;;;;;;;;;5018806;28;20030;-70
2022/02/07 07:29:03;;;;;;;21.50;3.97;;;;;;;;;;5011123;28;20087;-70
2022/02/07 07:31:28;;;;;;;14.93;2.70;;;;;;;;;;5024274;28;20033;-70
2022/02/07 07:33:54;;;;;;;11.40;3.00;;;;;;;;;;5023066;28;20537;-70
2022/02/07 07:36:21;;;;;;;15.57;2.60;;;;;;;;;;5020036;28;20251;-70
2022/02/07 07:38:46;;;;;;;14.20;2.20;;;;;;;;;;5019247;28;20515;-70
2022/02/07 07:41:12;;;;;;;14.90;2.33;;;;;;;;;;5021473;28;20022;-70
2022/02/07 07:43:38;;;;;;;11.53;2.47;;;;;;;;;;5010868;28;20263;-70
2022/02/07 07:46:08;;;;;;;10.00;2.03;;;;;;;;;;5014833;28;20350;-70
2022/02/07 07:48:35;;;;;;;7.90;1.67;;;;;;;;;;4999395;28;20101;-70
2022/02/07 07:51:23;;;;;;;9.13;1.93;;;;;;;;;;5008174;28;20054;-70
2022/02/07 07:54:01;;;;;;;12.47;1.83;;;;;;;;;;5008208;28;20135;-70
2022/02/07 08:01:59;;;;;;;10.90;2.33;;;;;;;;;;5016475;28;20086;-70
2022/02/07 08:04:32;;;;;;;7.47;2.53;;;;;;;;;;5015752;28;20035;-70
2022/02/07 08:07:07;;;;;;;8.67;1.47;;;;;;;;;;5010249;28;20376;-70
2022/02/07 08:12:00;;;;;;;16.50;1.87;;;;;;;;;;5018749;28;20087;-70
2022/02/07 08:14:28;;;;;;;10.90;1.67;;;;;;;;;;5018245;28;20026;-70
2022/02/07 08:16:53;;;;;;;13.50;2.60;;;;;;;;;;5012770;28;20232;-70
2022/02/07 08:19:19;;;;;;;16.33;2.73;;;;;;;;;;5019341;28;20101;-70
2022/02/07 08:21:45;;;;;;;9.60;1.83;;;;;;;;;;5017676;28;20029;-70
2022/02/07 08:24:10;;;;;;;18.17;2.40;;;;;;;;;;5013711;28;20025;-70
2022/02/07 08:26:35;;;;;;;10.83;2.03;;;;;;;;;;5013781;28;20025;-69
2022/02/07 08:29:01;;;;;;;17.50;2.30;;;;;;;;;;5016702;28;20397;-69
2022/02/07 08:31:26;;;;;;;20.03;2.70;;;;;;;;;;5018721;28;20021;-69
2022/02/07 08:33:51;;;;;;;12.67;2.00;;;;;;;;;;5016039;28;20524;-70
2022/02/07 08:36:17;;;;;;;8.80;1.70;;;;;;;;;;5015817;28;20494;-69
2022/02/07 08:38:43;;;;;;;11.40;1.50;;;;;;;;;;5016304;28;20060;-69
2022/02/07 08:41:08;;;;;;;9.37;2.30;;;;;;;;;;5017235;28;20246;-69
2022/02/07 08:43:33;;;;;;;9.93;1.80;;;;;;;;;;5014327;28;20455;-69
2022/02/07 08:45:59;;;;;;;9.10;1.60;;;;;;;;;;5017534;28;20120;-69
2022/02/07 08:48:24;;;;;;;6.10;1.47;;;;;;;;;;5013421;28;20596;-69
2022/02/07 08:50:52;;;;;;;6.70;1.40;;;;;;;;;;5018902;28;20117;-69
2022/02/07 08:53:17;;;;;;;15.10;3.10;;;;;;;;;;5008413;28;20056;-69
2022/02/07 08:55:48;;;;;;;9.83;1.30;;;;;;;;;;5018579;28;20020;-69
2022/02/07 08:58:18;;;;;;;6.27;1.33;;;;;;;;;;5015578;28;20025;-69
2022/02/07 09:03:44;;;;;;;13.13;2.30;;;;;;;;;;5018592;28;20056;-69
2022/02/07 09:08:49;;;;;;;6.57;1.13;;;;;;;;;;5014909;28;20204;-69
2022/02/07 09:11:15;;;;;;;8.10;1.47;;;;;;;;;;5012102;28;20064;-69
2022/02/07 09:13:43;;;;;;;14.33;2.23;;;;;;;;;;5010585;28;20243;-69
2022/02/07 09:18:35;;;;;;;10.20;2.20;;;;;;;;;;5015430;28;20034;-69
2022/02/07 09:21:01;;;;;;;10.13;1.67;;;;;;;;;;5025756;28;20025;-69
2022/02/07 09:23:28;;;;;;;9.57;1.53;;;;;;;;;;5026335;28;20075;-69
2022/02/07 09:25:53;;;;;;;11.23;1.63;;;;;;;;;;5025496;28;20026;-69
2022/02/07 09:28:19;;;;;;;14.10;1.90;;;;;;;;;;5025048;28;20033;-70
2022/02/07 09:30:45;;;;;;;10.57;1.73;;;;;;;;;;5025354;28;20044;-69
2022/02/07 09:33:10;;;;;;;10.10;1.93;;;;;;;;;;5024773;28;20081;-70
2022/02/07 09:35:35;;;;;;;8.63;2.33;;;;;;;;;;5028449;28;20103;-70
2022/02/07 09:38:01;;;;;;;14.27;2.50;;;;;;;;;;5024379;28;20036;-70
2022/02/07 09:40:27;;;;;;;15.73;3.37;;;;;;;;;;5027720;28;20105;-70
2022/02/07 09:42:57;;;;;;;16.63;2.83;;;;;;;;;;5026302;28;20394;-69
2022/02/07 09:45:31;;;;;;;16.43;2.73;;;;;;;;;;5029617;28;20514;-70
2022/02/07 09:47:57;;;;;;;10.53;1.67;;;;;;;;;;5022758;28;20056;-70
2022/02/07 09:50:22;;;;;;;17.70;2.23;;;;;;;;;;5026557;28;20022;-69
2022/02/07 09:52:47;;;;;;;9.40;1.67;;;;;;;;;;5024880;28;20348;-69
2022/02/07 09:55:13;;;;;;;13.27;1.63;;;;;;;;;;5023317;28;20105;-69
2022/02/07 09:57:38;;;;;;;14.73;3.13;;;;;;;;;;5019280;28;20040;-69
2022/02/07 10:00:08;;;;;;;8.60;1.60;;;;;;;;;;5025028;28;20490;-69
2022/02/07 10:02:48;;;;;;;6.90;1.83;;;;;;;;;;5026285;28;20084;-69
2022/02/07 10:05:24;;;;;;;12.93;1.63;;;;;;;;;;5028852;28;20061;-69
2022/02/07 10:08:06;;;;;;;10.00;2.20;;;;;;;;;;5030187;28;20107;-69
2022/02/07 10:10:40;;;;;;;11.80;2.37;;;;;;;;;;5025795;28;20047;-69
2022/02/07 10:15:39;;;;;;;13.20;2.87;;;;;;;;;;5029641;28;20026;-69
2022/02/07 10:18:13;;;;;;;13.63;2.03;;;;;;;;;;5032227;28;20033;-69
2022/02/07 10:40:19;;;;;;;9.17;1.80;;;;;;;;;;5029958;28;20040;-69
2022/02/07 10:45:35;;;;;;;15.53;2.10;;;;;;;;;;5028927;28;20029;-70
2022/02/07 10:48:05;;;;;;;9.23;1.80;;;;;;;;;;5029819;28;20056;-69
2022/02/07 10:50:30;;;;;;;11.70;2.43;;;;;;;;;;5025532;28;20041;-69
2022/02/07 10:52:58;;;;;;;13.60;1.60;;;;;;;;;;5029965;28;20470;-69
2022/02/07 10:55:26;;;;;;;11.33;2.60;;;;;;;;;;5029244;28;20140;-70
2022/02/07 10:57:52;;;;;;;11.60;2.13;;;;;;;;;;5028010;28;20132;-69
2022/02/07 11:00:22;;;;;;;12.73;2.80;;;;;;;;;;5026417;28;20033;-70
2022/02/07 11:03:11;;;;;;;8.43;1.50;;;;;;;;;;5028655;28;20156;-70
2022/02/07 11:05:51;;;;;;;14.33;2.47;;;;;;;;;;5022097;28;20037;-69
2022/02/07 11:17:04;;;;;;;10.37;2.00;;;;;;;;;;5026607;28;20044;-70
2022/02/07 11:21:42;;;;;;;18.02;2.22;;;;;;;;;;5029024;28;20492;-70
2022/02/07 11:24:26;;;;;;;15.87;2.10;;;;;;;;;;5026368;28;20087;-70
2022/02/07 11:26:51;;;;;;;7.57;1.30;;;;;;;;;;5035537;28;20382;-70
2022/02/07 11:29:35;;;;;;;10.70;2.13;;;;;;;;;;5029113;28;20033;-70
2022/02/07 11:32:00;;;;;;;18.60;2.03;;;;;;;;;;5013292;28;20030;-70
2022/02/07 11:34:40;;;;;;;13.50;2.07;;;;;;;;;;5027144;28;20624;-70
2022/02/07 11:37:23;;;;;;;10.70;1.50;;;;;;;;;;5028998;28;20517;-70
2022/02/07 11:39:49;;;;;;;10.10;1.90;;;;;;;;;;5025032;28;20030;-70
2022/02/07 11:42:15;;;;;;;8.73;1.70;;;;;;;;;;5011583;28;20059;-70
2022/02/07 11:44:41;;;;;;;7.13;1.60;;;;;;;;;;5025966;28;20029;-70
2022/02/07 11:47:23;;;;;;;39.70;2.33;;;;;;;;;;5021176;28;20020;-69
2022/02/07 11:49:49;;;;;;;;;;;;;;;;;;5028334;28;20017;-70
2022/02/07 11:52:26;;;;;;;12.68;2.97;;;;;;;;;;5027815;28;19933;-70
2022/02/07 11:54:58;;;;;;;10.07;2.47;;;;;;;;;;5019855;28;20056;-70
2022/02/07 11:57:25;;;;;;;;;;;;;;;;;;5026036;28;20214;-70
2022/02/07 12:00:00;;;;;;;9.50;2.00;;;;;;;;;;5021768;28;19909;-70
2022/02/07 12:02:36;;;;;;;9.90;1.80;;;;;;;;;;5025905;28;20030;-70
2022/02/07 12:05:01;;;;;;;13.60;2.13;;;;;;;;;;5022089;28;20060;-70
2022/02/07 12:07:29;;;;;;;15.63;2.03;;;;;;;;;;5027852;28;20093;-70
2022/02/07 12:10:15;;;;;;;10.23;2.03;;;;;;;;;;5023210;28;20501;-70
2022/02/07 12:12:45;;;;;;;8.73;1.77;;;;;;;;;;5021024;28;20040;-70
2022/02/07 12:15:11;;;;;;;9.67;1.93;;;;;;;;;;5027489;28;20131;-70
2022/02/07 12:17:42;;;;;;;10.77;1.60;;;;;;;;;;5028044;28;20870;-70
2022/02/07 12:20:09;;;;;;;7.50;1.55;;;;;;;;;;5029980;28;20060;-69
2022/02/07 12:22:56;;;;;;;11.23;1.50;;;;;;;;;;5027727;28;20099;-69
2022/02/07 12:25:52;;;;;;;6.97;1.50;;;;;;;;;;5025170;28;20108;-69
2022/02/07 12:28:26;;;;;;;7.03;0.93;;;;;;;;;;5022308;28;20029;-69
2022/02/07 12:33:30;;;;;;;5.03;1.20;;;;;;;;;;5022358;28;20032;-70
2022/02/07 12:35:57;;;;;;;12.93;1.50;;;;;;;;;;5022559;28;20470;-69
2022/02/07 12:38:23;;;;;;;9.83;1.43;;;;;;;;;;5021167;28;20116;-70
2022/02/07 12:40:48;;;;;;;6.93;1.30;;;;;;;;;;5024411;28;20117;-70
2022/02/07 12:43:14;;;;;;;7.23;1.50;;;;;;;;;;5024556;28;20493;-70
2022/02/07 12:45:40;;;;;;;8.20;1.93;;;;;;;;;;5025568;28;20021;-70
2022/02/07 12:48:11;;;;;;;10.67;1.70;;;;;;;;;;5024245;28;20143;-70
2022/02/07 12:50:38;;;;;;;5.03;1.40;;;;;;;;;;5025960;28;20029;-70
2022/02/07 12:53:03;;;;;;;12.10;1.97;;;;;;;;;;5019827;28;20675;-70
2022/02/07 12:55:30;;;;;;;7.23;2.30;;;;;;;;;;5028861;28;20112;-70
2022/02/07 12:57:56;;;;;;;11.93;1.90;;;;;;;;;;5024665;28;20051;-70
2022/02/07 13:00:21;;;;;;;9.37;2.03;;;;;;;;;;5033046;28;20406;-70
2022/02/07 13:02:48;;;;;;;9.47;1.70;;;;;;;;;;5025239;28;20317;-70
2022/02/07 13:05:14;;;;;;;9.43;1.93;;;;;;;;;;5021322;28;20057;-70
2022/02/07 13:07:45;;;;;;;7.27;1.17;;;;;;;;;;5027375;28;20517;-70
2022/02/07 13:10:13;;;;;;;10.25;1.83;;;;;;;;;;5024506;28;20022;-70
2022/02/07 13:12:53;;;;;;;6.17;1.40;;;;;;;;;;5022755;28;20155;-70
2022/02/07 13:15:23;;;;;;;5.00;1.03;;;;;;;;;;5026558;28;20029;-70
2022/02/07 13:17:59;;;;;;;14.43;1.40;;;;;;;;;;5027723;28;20148;-70
2022/02/07 13:20:25;;;;;;;10.57;2.43;;;;;;;;;;5025358;28;20053;-70
2022/02/07 13:23:01;;;;;;;13.13;1.80;;;;;;;;;;5025462;28;20048;-70
2022/02/07 13:25:36;;;;;;;8.80;1.97;;;;;;;;;;5023602;28;20037;-70
2022/02/07 13:28:01;;;;;;;6.90;1.30;;;;;;;;;;5024975;28;20025;-70
2022/02/07 13:30:27;;;;;;;16.77;2.60;;;;;;;;;;5020862;28;20018;-70
2022/02/07 13:32:52;;;;;;;6.70;1.50;;;;;;;;;;5024940;28;20381;-70
2022/02/07 13:35:19;;;;;;;13.07;2.30;;;;;;;;;;5024598;28;20486;-70
2022/02/07 13:37:44;;;;;;;11.27;1.30;;;;;;;;;;5027582;28;20025;-70
2022/02/07 13:40:21;;;;;;;5.50;1.30;;;;;;;;;;5025764;28;20394;-70
2022/02/07 13:42:50;;;;;;;12.80;2.00;;;;;;;;;;5027784;28;20021;-70
2022/02/07 13:45:17;;;;;;;10.60;2.13;;;;;;;;;;5036976;28;20168;-70
2022/02/07 13:47:48;;;;;;;7.40;1.27;;;;;;;;;;5025966;28;20068;-70
2022/02/07 13:50:15;;;;;;;7.30;1.27;;;;;;;;;;5025169;28;20030;-70
2022/02/07 13:52:45;;;;;;;15.83;2.57;;;;;;;;;;5022454;28;20030;-70
2022/02/07 13:55:18;;;;;;;8.77;1.57;;;;;;;;;;5030303;28;20017;-70
2022/02/07 13:57:54;;;;;;;7.50;1.40;;;;;;;;;;5025977;28;20405;-70
2022/02/07 14:00:20;;;;;;;19.20;2.03;;;;;;;;;;5027816;28;20060;-70
2022/02/07 14:02:46;;;;;;;15.13;1.90;;;;;;;;;;5028427;28;20382;-70
2022/02/07 14:05:13;;;;;;;7.50;1.47;;;;;;;;;;5035728;28;20036;-70
2022/02/07 14:07:52;;;;;;;7.87;1.40;;;;;;;;;;5029033;28;20038;-70
2022/02/07 14:10:19;;;;;;;8.37;2.30;;;;;;;;;;5029678;28;20493;-71
2022/02/07 14:12:44;;;;;;;7.43;2.43;;;;;;;;;;5027331;28;20273;-70
2022/02/07 14:15:09;;;;;;;11.30;2.17;;;;;;;;;;5029163;28;20128;-70
2022/02/07 14:17:34;;;;;;;6.10;2.00;;;;;;;;;;5031267;28;20052;-70
2022/02/07 14:20:00;;;;;;;13.33;1.70;;;;;;;;;;5029594;28;20025;-70
2022/02/07 14:22:28;;;;;;;11.60;1.67;;;;;;;;;;5022838;28;20021;-70
2022/02/07 14:24:53;;;;;;;10.93;1.53;;;;;;;;;;5023180;28;20049;-70
2022/02/07 14:27:18;;;;;;;7.30;1.40;;;;;;;;;;5029126;28;20127;-70
2022/02/07 14:29:43;;;;;;;13.03;1.80;;;;;;;;;;5029319;28;20029;-70
2022/02/07 14:32:08;;;;;;;7.13;1.37;;;;;;;;;;5026496;28;20056;-70
2022/02/07 14:34:34;;;;;;;10.70;2.20;;;;;;;;;;5024748;28;20030;-70
2022/02/07 14:36:59;;;;;;;7.07;2.17;;;;;;;;;;5029261;28;20071;-70
2022/02/07 14:39:24;;;;;;;17.50;2.43;;;;;;;;;;5028271;28;20029;-70
2022/02/07 14:41:52;;;;;;;15.33;1.83;;;;;;;;;;5025169;28;20060;-70
2022/02/07 14:44:26;;;;;;;13.47;2.57;;;;;;;;;;5026792;28;20037;-70
2022/02/07 14:47:02;;;;;;;10.30;1.57;;;;;;;;;;5027394;28;20033;-70
2022/02/07 14:49:28;;;;;;;6.63;1.37;;;;;;;;;;5029341;28;20040;-70
2022/02/07 14:51:54;;;;;;;8.87;1.17;;;;;;;;;;5029263;28;20022;-70
2022/02/07 14:54:19;;;;;;;7.83;1.70;;;;;;;;;;5024520;28;20017;-70
2022/02/07 14:56:44;;;;;;;11.80;1.73;;;;;;;;;;5028271;28;20022;-70
2022/02/07 14:59:15;;;;;;;6.33;1.53;;;;;;;;;;5029008;28;20032;-70
2022/02/07 15:01:41;;;;;;;8.07;1.45;;;;;;;;;;5024971;28;20376;-70
2022/02/07 15:04:06;;;;;;;8.07;1.33;;;;;;;;;;5027164;28;20048;-70
2022/02/07 15:06:31;;;;;;;7.50;1.10;;;;;;;;;;5021898;28;20026;-70
2022/02/07 15:08:57;;;;;;;9.27;1.87;;;;;;;;;;5022260;28;20052;-70
2022/02/07 15:11:22;;;;;;;8.33;1.50;;;;;;;;;;5029222;28;20048;-70
2022/02/07 15:13:47;;;;;;;7.83;2.00;;;;;;;;;;5028613;28;20087;-70
2022/02/07 15:16:12;;;;;;;8.43;1.20;;;;;;;;;;5029016;28;20021;-69
2022/02/07 15:18:38;;;;;;;7.40;1.43;;;;;;;;;;5019863;28;20014;-70
2022/02/07 15:21:05;;;;;;;8.57;1.83;;;;;;;;;;5026522;28;20033;-69
2022/02/07 15:23:31;;;;;;;11.23;0.83;;;;;;;;;;5025296;28;20037;-69
2022/02/07 15:25:57;;;;;;;3.83;0.93;;;;;;;;;;5025270;28;20336;-70
2022/02/07 15:28:22;;;;;;;9.77;1.40;;;;;;;;;;5028704;28;20345;-70
2022/02/07 15:30:47;;;;;;;5.13;1.53;;;;;;;;;;5028239;28;20028;-70
2022/02/07 15:33:17;;;;;;;8.27;1.20;;;;;;;;;;5028409;28;20025;-70
2022/02/07 15:35:43;;;;;;;4.80;1.17;;;;;;;;;;5031392;28;20051;-69
2022/02/07 15:38:09;;;;;;;6.87;1.27;;;;;;;;;;5028910;28;20027;-69
2022/02/07 15:40:37;;;;;;;9.40;1.77;;;;;;;;;;5021395;28;20034;-71
2022/02/07 15:43:02;;;;;;;7.30;1.43;;;;;;;;;;5016642;28;20060;-70
2022/02/07 15:45:28;;;;;;;7.87;1.90;;;;;;;;;;5030956;28;20445;-70
2022/02/07 15:48:03;;;;;;;8.33;1.30;;;;;;;;;;5029291;28;20017;-70
2022/02/07 15:50:28;;;;;;;9.80;2.10;;;;;;;;;;5030789;28;20453;-70
2022/02/07 15:52:54;;;;;;;4.70;1.03;;;;;;;;;;5027061;28;20048;-70
2022/02/07 15:55:19;;;;;;;11.73;1.20;;;;;;;;;;5027960;28;20537;-70
2022/02/07 15:57:45;;;;;;;7.73;1.63;;;;;;;;;;5029048;28;20150;-70
2022/02/07 16:00:11;;;;;;;12.53;1.70;;;;;;;;;;5029292;28;20457;-70
2022/02/07 16:02:40;;;;;;;10.87;2.33;;;;;;;;;;5036996;28;20185;-70
2022/02/07 16:05:06;;;;;;;7.20;1.30;;;;;;;;;;5023415;28;20389;-70
2022/02/07 16:07:31;;;;;;;5.10;1.30;;;;;;;;;;5023312;28;20064;-70
2022/02/07 16:09:56;;;;;;;12.53;1.90;;;;;;;;;;5018252;28;20061;-70
2022/02/07 16:12:22;;;;;;;11.90;1.80;;;;;;;;;;5026916;28;20017;-70
2022/02/07 16:14:49;;;;;;;6.40;1.10;;;;;;;;;;5026827;28;21008;-71
2022/02/07 16:17:15;;;;;;;5.33;1.73;;;;;;;;;;5028008;28;20123;-71
2022/02/07 16:19:40;;;;;;;11.33;1.53;;;;;;;;;;5025725;28;20093;-71
2022/02/07 16:22:09;;;;;;;8.27;2.27;;;;;;;;;;5028433;28;20386;-71
2022/02/07 16:24:34;;;;;;;10.97;1.80;;;;;;;;;;5020272;28;20055;-71
2022/02/07 16:27:00;;;;;;;8.37;1.47;;;;;;;;;;5022078;28;20025;-71
2022/02/07 16:29:25;;;;;;;9.00;1.40;;;;;;;;;;5026706;28;20063;-71
2022/02/07 16:31:50;;;;;;;4.70;1.57;;;;;;;;;;5029561;28;20054;-71
2022/02/07 16:34:18;;;;;;;7.87;1.70;;;;;;;;;;5029553;28;20119;-71
2022/02/07 16:36:48;;;;;;;13.10;1.53;;;;;;;;;;5025071;28;20283;-71
2022/02/07 16:39:13;;;;;;;9.90;1.27;;;;;;;;;;5026610;28;20048;-71
2022/02/07 16:41:39;;;;;;;7.37;1.77;;;;;;;;;;5026862;28;20473;-71
2022/02/07 16:44:08;;;;;;;10.00;2.30;;;;;;;;;;5024859;28;20026;-71
2022/02/07 16:46:48;;;;;;;7.77;1.83;;;;;;;;;;5026639;28;20017;-71
2022/02/07 16:49:14;;;;;;;9.63;1.87;;;;;;;;;;5021664;28;20425;-71
2022/02/07 16:51:39;;;;;;;10.87;1.57;;;;;;;;;;5027993;28;20191;-71
2022/02/07 16:54:04;;;;;;;15.57;1.90;;;;;;;;;;5025298;28;20022;-71
2022/02/07 16:56:30;;;;;;;6.50;1.50;;;;;;;;;;5026703;28;20018;-70
2022/02/07 16:58:55;;;;;;;9.40;1.47;;;;;;;;;;5027943;28;20021;-70
2022/02/07 17:01:20;;;;;;;8.00;1.80;;;;;;;;;;5023769;28;20021;-70
2022/02/07 17:03:46;;;;;;;12.00;1.97;;;;;;;;;;5025885;28;20481;-70
2022/02/07 17:06:11;;;;;;;3.60;1.20;;;;;;;;;;5025516;28;20080;-70
2022/02/07 17:08:36;;;;;;;12.50;2.20;;;;;;;;;;5025712;28;20041;-70
2022/02/07 17:11:04;;;;;;;7.73;1.40;;;;;;;;;;5023460;28;20029;-70